Time;durP1;ratioP1;P1;durP2;ratioP2;P2;SDS_P1;SDS_P2;PMS_P1;PMS_P2;Temp;Humidity;BMP_temperature;BMP_pressure;BME280_temperature;BME280_humidity;BME280_pressure;Samples;Min_cycle;Max_cycle;Signal;HPM_P1;HPM_P2
2021/06/08 00:02:17;;;;;;;5.50;2.38;;;;;;;;;;5097778;28;20040;-54
2021/06/08 00:04:43;;;;;;;5.50;2.90;;;;;;;;;;5098709;28;20040;-57
2021/06/08 00:07:09;;;;;;;7.90;2.92;;;;;;;;;;5044181;28;20093;-54
2021/06/08 00:09:35;;;;;;;5.72;2.53;;;;;;;;;;5042117;28;20056;-58
2021/06/08 00:12:04;;;;;;;5.70;2.53;;;;;;;;;;5073932;28;20044;-57
2021/06/08 00:14:30;;;;;;;7.80;3.65;;;;;;;;;;5077923;28;20033;-54
2021/06/08 00:16:56;;;;;;;5.97;2.63;;;;;;;;;;5043379;28;20047;-55
2021/06/08 00:19:22;;;;;;;5.03;2.55;;;;;;;;;;5047115;28;20045;-57
2021/06/08 00:21:48;;;;;;;5.38;2.70;;;;;;;;;;5077071;28;20048;-57
2021/06/08 00:24:14;;;;;;;7.15;2.42;;;;;;;;;;5079108;28;20033;-54
2021/06/08 00:26:40;;;;;;;3.95;2.25;;;;;;;;;;5050146;28;20055;-54
2021/06/08 00:29:08;;;;;;;5.93;2.70;;;;;;;;;;5099166;28;20234;-57
2021/06/08 00:31:34;;;;;;;5.60;2.55;;;;;;;;;;5088455;28;20144;-56
2021/06/08 00:34:00;;;;;;;7.00;2.53;;;;;;;;;;5045566;28;20186;-58
2021/06/08 00:36:26;;;;;;;5.78;2.72;;;;;;;;;;5062570;28;20080;-56
2021/06/08 00:38:51;;;;;;;5.68;2.67;;;;;;;;;;5078669;28;20037;-54
2021/06/08 00:41:19;;;;;;;6.22;2.85;;;;;;;;;;5041688;28;20033;-54
2021/06/08 00:43:45;;;;;;;5.10;2.78;;;;;;;;;;5044331;28;20032;-56
2021/06/08 00:46:13;;;;;;;5.25;2.53;;;;;;;;;;5045224;28;20130;-53
2021/06/08 00:48:39;;;;;;;5.97;2.95;;;;;;;;;;5044932;28;20041;-55
2021/06/08 00:51:05;;;;;;;5.60;2.85;;;;;;;;;;5047543;28;20110;-54
2021/06/08 00:53:31;;;;;;;4.70;2.53;;;;;;;;;;5044927;28;20052;-54
2021/06/08 00:55:56;;;;;;;6.68;2.80;;;;;;;;;;5066286;28;20044;-57
2021/06/08 00:58:23;;;;;;;5.82;3.10;;;;;;;;;;5043110;28;20182;-52
2021/06/08 01:00:49;;;;;;;6.75;3.00;;;;;;;;;;5046854;28;20049;-57
2021/06/08 01:03:16;;;;;;;8.40;3.03;;;;;;;;;;5061938;28;20063;-57
2021/06/08 01:05:42;;;;;;;9.23;3.60;;;;;;;;;;5047756;28;20032;-55
2021/06/08 01:08:09;;;;;;;6.55;3.30;;;;;;;;;;5044439;28;20178;-55
2021/06/08 01:10:35;;;;;;;6.03;3.40;;;;;;;;;;5042990;28;20060;-57
2021/06/08 01:13:01;;;;;;;7.97;3.03;;;;;;;;;;5047898;28;20041;-53
2021/06/08 01:15:27;;;;;;;5.88;3.10;;;;;;;;;;5080726;28;20045;-53
2021/06/08 01:17:53;;;;;;;7.13;3.60;;;;;;;;;;5060321;28;20071;-53
2021/06/08 01:20:20;;;;;;;8.30;3.53;;;;;;;;;;5080704;28;20045;-53
2021/06/08 01:22:48;;;;;;;5.25;3.10;;;;;;;;;;5045739;28;20045;-53
2021/06/08 01:25:14;;;;;;;8.25;3.63;;;;;;;;;;5046185;28;20049;-54
2021/06/08 01:27:40;;;;;;;6.50;3.55;;;;;;;;;;5081663;28;20052;-55
2021/06/08 01:30:09;;;;;;;6.00;3.42;;;;;;;;;;5042302;28;20099;-54
2021/06/08 01:32:35;;;;;;;9.00;3.75;;;;;;;;;;5081426;28;20045;-55
2021/06/08 01:35:01;;;;;;;10.63;3.85;;;;;;;;;;5077763;28;20052;-53
2021/06/08 01:37:27;;;;;;;7.47;3.90;;;;;;;;;;5073260;28;20061;-54
2021/06/08 01:39:55;;;;;;;7.35;3.47;;;;;;;;;;5098717;28;20032;-52
2021/06/08 01:42:21;;;;;;;8.38;3.80;;;;;;;;;;5065063;28;20052;-56
2021/06/08 01:44:47;;;;;;;6.60;3.30;;;;;;;;;;5098027;28;20046;-52
2021/06/08 01:47:14;;;;;;;8.45;3.47;;;;;;;;;;5067230;28;20048;-50
2021/06/08 01:49:41;;;;;;;8.60;3.55;;;;;;;;;;5064062;28;20044;-52
2021/06/08 01:52:10;;;;;;;8.82;4.18;;;;;;;;;;5085181;28;20032;-55
2021/06/08 01:54:41;;;;;;;10.55;4.25;;;;;;;;;;5078640;28;20044;-52
2021/06/08 01:57:13;;;;;;;8.73;3.97;;;;;;;;;;5100644;28;20105;-56
2021/06/08 01:59:45;;;;;;;8.77;3.97;;;;;;;;;;5056990;28;20102;-57
2021/06/08 02:02:12;;;;;;;6.95;3.90;;;;;;;;;;5097831;28;20067;-51
2021/06/08 02:04:41;;;;;;;8.23;3.97;;;;;;;;;;5064359;28;20040;-54
2021/06/08 02:07:11;;;;;;;7.25;4.22;;;;;;;;;;5067459;28;20036;-55
2021/06/08 02:09:40;;;;;;;8.27;4.20;;;;;;;;;;5097519;28;20040;-57
2021/06/08 02:12:11;;;;;;;6.88;4.03;;;;;;;;;;5080155;28;20041;-53
2021/06/08 02:14:39;;;;;;;7.35;4.10;;;;;;;;;;5078766;28;20048;-52
2021/06/08 02:17:12;;;;;;;9.05;4.32;;;;;;;;;;5079428;28;20048;-52
2021/06/08 02:19:39;;;;;;;8.00;4.30;;;;;;;;;;5066115;28;20055;-53
2021/06/08 02:22:05;;;;;;;8.07;4.30;;;;;;;;;;5080507;28;20036;-53
2021/06/08 02:24:31;;;;;;;8.30;4.40;;;;;;;;;;5066927;28;20084;-53
2021/06/08 02:27:00;;;;;;;7.60;4.03;;;;;;;;;;5062539;28;20055;-52
2021/06/08 02:29:27;;;;;;;8.73;4.32;;;;;;;;;;5098900;28;20033;-53
2021/06/08 02:31:54;;;;;;;11.18;4.80;;;;;;;;;;5063573;28;20052;-51
2021/06/08 02:34:21;;;;;;;9.45;4.75;;;;;;;;;;5066387;28;20048;-52
2021/06/08 02:36:47;;;;;;;7.85;4.47;;;;;;;;;;5081247;28;20044;-55
2021/06/08 02:39:15;;;;;;;9.35;4.65;;;;;;;;;;5064644;28;20044;-54
2021/06/08 02:41:41;;;;;;;10.82;4.50;;;;;;;;;;5061688;28;20037;-56
2021/06/08 02:44:08;;;;;;;10.60;4.88;;;;;;;;;;5066257;28;20036;-54
2021/06/08 02:46:34;;;;;;;8.65;4.35;;;;;;;;;;5063660;28;20044;-55
2021/06/08 02:49:02;;;;;;;8.10;4.57;;;;;;;;;;5067214;28;20040;-51
2021/06/08 02:51:29;;;;;;;15.43;4.82;;;;;;;;;;5062921;28;20086;-52
2021/06/08 02:53:55;;;;;;;10.30;4.88;;;;;;;;;;5083631;28;20040;-57
2021/06/08 02:56:21;;;;;;;11.65;5.53;;;;;;;;;;5067272;28;20048;-53
2021/06/08 02:58:48;;;;;;;12.30;5.47;;;;;;;;;;5080839;28;20036;-51
2021/06/08 03:01:15;;;;;;;15.75;4.85;;;;;;;;;;5084185;28;20045;-54
2021/06/08 03:03:42;;;;;;;9.27;5.18;;;;;;;;;;5082020;28;20040;-55
2021/06/08 03:06:11;;;;;;;9.45;5.10;;;;;;;;;;5083082;28;20125;-53
2021/06/08 03:08:40;;;;;;;10.65;5.60;;;;;;;;;;5094513;28;20059;-54
2021/06/08 03:11:07;;;;;;;12.18;5.40;;;;;;;;;;5065884;28;20037;-53
2021/06/08 03:13:34;;;;;;;10.80;5.22;;;;;;;;;;5059495;28;20049;-51
2021/06/08 03:16:01;;;;;;;10.70;5.63;;;;;;;;;;5047382;28;20041;-55
2021/06/08 03:18:28;;;;;;;9.95;5.40;;;;;;;;;;5051823;28;20032;-53
2021/06/08 03:20:56;;;;;;;10.70;5.70;;;;;;;;;;5084669;28;20040;-56
2021/06/08 03:23:26;;;;;;;10.32;5.63;;;;;;;;;;5063703;28;20052;-55
2021/06/08 03:25:52;;;;;;;11.30;5.57;;;;;;;;;;5066739;28;20158;-53
2021/06/08 03:28:22;;;;;;;11.98;5.20;;;;;;;;;;5063495;28;20040;-52
2021/06/08 03:30:49;;;;;;;11.40;5.75;;;;;;;;;;5083850;28;20033;-54
2021/06/08 03:33:15;;;;;;;10.32;5.03;;;;;;;;;;5081849;28;20047;-53
2021/06/08 03:35:42;;;;;;;9.10;4.93;;;;;;;;;;5100921;28;20040;-52
2021/06/08 03:38:08;;;;;;;10.88;5.55;;;;;;;;;;5082637;28;20048;-51
2021/06/08 03:40:36;;;;;;;12.55;6.00;;;;;;;;;;5083676;28;20059;-54
2021/06/08 03:43:03;;;;;;;10.75;5.95;;;;;;;;;;5071855;28;20089;-52
2021/06/08 03:45:31;;;;;;;11.25;5.80;;;;;;;;;;5063861;28;20040;-58
2021/06/08 03:47:58;;;;;;;12.18;5.93;;;;;;;;;;5083905;28;20036;-56
2021/06/08 03:50:25;;;;;;;11.68;5.43;;;;;;;;;;5064041;28;20052;-55
2021/06/08 03:52:51;;;;;;;10.45;5.60;;;;;;;;;;5099797;28;20056;-55
2021/06/08 03:55:18;;;;;;;9.65;5.20;;;;;;;;;;5094765;28;20125;-51
2021/06/08 03:57:48;;;;;;;12.13;5.82;;;;;;;;;;5065901;28;20028;-55
2021/06/08 04:00:15;;;;;;;11.70;5.68;;;;;;;;;;5061121;28;20044;-57
2021/06/08 04:02:41;;;;;;;11.75;5.65;;;;;;;;;;5080867;28;20088;-53
2021/06/08 04:05:08;;;;;;;12.45;6.25;;;;;;;;;;5065791;28;20036;-52
2021/06/08 04:07:44;;;;;;;10.07;5.45;;;;;;;;;;5083507;28;20063;-57
2021/06/08 04:10:14;;;;;;;10.82;5.60;;;;;;;;;;5078318;28;20036;-56
2021/06/08 04:12:40;;;;;;;11.50;6.15;;;;;;;;;;5064613;28;20050;-58
2021/06/08 04:15:08;;;;;;;13.10;6.03;;;;;;;;;;5096011;28;20060;-57
2021/06/08 04:17:36;;;;;;;15.07;5.97;;;;;;;;;;5066101;28;20052;-55
2021/06/08 04:20:03;;;;;;;12.70;6.83;;;;;;;;;;5061600;28;20044;-54
2021/06/08 04:22:30;;;;;;;13.88;7.43;;;;;;;;;;5065260;28;20153;-52
2021/06/08 04:24:56;;;;;;;13.13;6.68;;;;;;;;;;5096102;28;20057;-56
2021/06/08 04:27:23;;;;;;;13.13;5.65;;;;;;;;;;5046412;28;20059;-57
2021/06/08 04:29:49;;;;;;;13.95;6.15;;;;;;;;;;5079742;28;20041;-55
2021/06/08 04:32:16;;;;;;;12.07;6.22;;;;;;;;;;5061412;28;20048;-55
2021/06/08 04:34:45;;;;;;;11.80;6.53;;;;;;;;;;5066612;28;20040;-52
2021/06/08 04:37:11;;;;;;;12.23;6.47;;;;;;;;;;5078228;28;20079;-56
2021/06/08 04:39:38;;;;;;;14.60;6.72;;;;;;;;;;5064420;28;20106;-54
2021/06/08 04:42:04;;;;;;;11.00;6.30;;;;;;;;;;5061419;28;20040;-50
2021/06/08 04:44:30;;;;;;;12.23;6.10;;;;;;;;;;5066791;28;20032;-51
2021/06/08 04:46:56;;;;;;;9.63;5.38;;;;;;;;;;5062098;28;20036;-57
2021/06/08 04:49:24;;;;;;;10.50;5.95;;;;;;;;;;5064467;28;20040;-54
2021/06/08 04:51:50;;;;;;;10.18;5.90;;;;;;;;;;5080224;28;20025;-56
2021/06/08 04:54:21;;;;;;;9.40;5.55;;;;;;;;;;5063987;28;20037;-57
2021/06/08 04:56:48;;;;;;;11.07;5.55;;;;;;;;;;5079646;28;20044;-58
2021/06/08 04:59:16;;;;;;;10.25;5.15;;;;;;;;;;5065529;28;20051;-58
2021/06/08 05:01:43;;;;;;;10.40;5.10;;;;;;;;;;5061043;28;20309;-54
2021/06/08 05:04:11;;;;;;;12.32;5.40;;;;;;;;;;5065526;28;20048;-57
2021/06/08 05:06:40;;;;;;;10.63;5.20;;;;;;;;;;5061627;28;20086;-59
2021/06/08 05:09:10;;;;;;;11.05;5.40;;;;;;;;;;5065821;28;20029;-54
2021/06/08 05:11:38;;;;;;;18.00;5.28;;;;;;;;;;5096811;28;20044;-57
2021/06/08 05:14:06;;;;;;;10.48;4.47;;;;;;;;;;5062659;28;20036;-57
2021/06/08 05:16:32;;;;;;;9.57;4.50;;;;;;;;;;5065630;28;20086;-56
2021/06/08 05:18:58;;;;;;;10.15;4.72;;;;;;;;;;5058100;28;20297;-56
2021/06/08 05:21:25;;;;;;;12.02;4.72;;;;;;;;;;5065544;28;20044;-53
2021/06/08 05:23:53;;;;;;;11.32;5.05;;;;;;;;;;5081336;28;20044;-56
2021/06/08 05:26:20;;;;;;;9.63;4.60;;;;;;;;;;5084410;28;20032;-53
2021/06/08 05:28:46;;;;;;;11.23;4.03;;;;;;;;;;5060302;28;20116;-54
2021/06/08 05:31:12;;;;;;;13.65;4.72;;;;;;;;;;5088966;28;20055;-57
2021/06/08 05:33:40;;;;;;;12.82;4.18;;;;;;;;;;5064034;28;20051;-56
2021/06/08 05:36:06;;;;;;;9.67;4.00;;;;;;;;;;5057354;28;20056;-53
2021/06/08 05:38:33;;;;;;;7.72;3.90;;;;;;;;;;5087678;27;20036;-57
2021/06/08 05:41:03;;;;;;;10.02;4.03;;;;;;;;;;5067741;28;20024;-56
2021/06/08 05:43:29;;;;;;;8.50;3.88;;;;;;;;;;5062687;28;20032;-55
2021/06/08 05:45:55;;;;;;;7.10;3.50;;;;;;;;;;5094712;28;20080;-57
2021/06/08 05:48:21;;;;;;;9.27;3.70;;;;;;;;;;5063550;28;20068;-57
2021/06/08 05:50:47;;;;;;;7.47;3.38;;;;;;;;;;5085652;28;20277;-52
2021/06/08 05:53:16;;;;;;;11.27;3.40;;;;;;;;;;5087946;28;20080;-57
2021/06/08 05:55:43;;;;;;;9.13;3.63;;;;;;;;;;5064825;28;20129;-58
2021/06/08 05:58:11;;;;;;;6.80;3.07;;;;;;;;;;5067887;28;20040;-57
2021/06/08 06:00:37;;;;;;;7.73;3.13;;;;;;;;;;5066562;28;20047;-55
2021/06/08 06:03:04;;;;;;;8.18;2.90;;;;;;;;;;5089931;27;20051;-57
2021/06/08 06:05:30;;;;;;;8.98;2.97;;;;;;;;;;5064479;28;20055;-57
2021/06/08 06:07:59;;;;;;;7.57;3.10;;;;;;;;;;5066259;28;20040;-55
2021/06/08 06:10:25;;;;;;;6.70;2.80;;;;;;;;;;5082290;28;20072;-57
2021/06/08 06:12:52;;;;;;;8.60;3.60;;;;;;;;;;5066460;28;20063;-57
2021/06/08 06:15:21;;;;;;;6.18;2.65;;;;;;;;;;5063780;28;20048;-53
2021/06/08 06:17:47;;;;;;;6.00;2.63;;;;;;;;;;5066950;28;20056;-56
2021/06/08 06:20:14;;;;;;;7.60;2.92;;;;;;;;;;5062252;28;20036;-56
2021/06/08 06:22:40;;;;;;;8.40;3.17;;;;;;;;;;5067564;28;20040;-57
2021/06/08 06:25:08;;;;;;;6.22;2.53;;;;;;;;;;5081381;28;20033;-54
2021/06/08 06:27:35;;;;;;;4.60;2.00;;;;;;;;;;5066814;28;20047;-57
2021/06/08 06:30:01;;;;;;;5.40;2.33;;;;;;;;;;5063295;28;20059;-57
2021/06/08 06:32:29;;;;;;;7.47;2.30;;;;;;;;;;5083755;28;20055;-57
2021/06/08 06:34:54;;;;;;;7.05;2.40;;;;;;;;;;5064643;28;20043;-57
2021/06/08 06:37:21;;;;;;;5.68;2.28;;;;;;;;;;5083506;28;20044;-58
2021/06/08 06:39:48;;;;;;;5.35;2.08;;;;;;;;;;5098825;28;20039;-58
2021/06/08 06:42:14;;;;;;;5.50;1.77;;;;;;;;;;5095554;28;20032;-57
2021/06/08 06:44:42;;;;;;;3.60;1.70;;;;;;;;;;5066374;28;20040;-58
2021/06/08 06:47:08;;;;;;;7.32;1.83;;;;;;;;;;5061707;28;20122;-56
2021/06/08 06:49:35;;;;;;;5.32;1.70;;;;;;;;;;5065271;28;20051;-52
2021/06/08 06:52:02;;;;;;;6.13;1.40;;;;;;;;;;5095056;28;20020;-56
2021/06/08 06:54:29;;;;;;;2.20;1.20;;;;;;;;;;5098405;28;20063;-55
2021/06/08 06:56:57;;;;;;;3.97;1.80;;;;;;;;;;5080996;28;20064;-51
2021/06/08 06:59:23;;;;;;;5.35;1.73;;;;;;;;;;5099769;28;20044;-54
2021/06/08 07:01:49;;;;;;;3.40;1.35;;;;;;;;;;5062559;28;20032;-58
2021/06/08 07:04:15;;;;;;;3.00;1.13;;;;;;;;;;5064811;28;20044;-51
2021/06/08 07:06:45;;;;;;;4.28;1.35;;;;;;;;;;5063579;27;20245;-57
2021/06/08 07:09:11;;;;;;;2.00;1.35;;;;;;;;;;5077515;28;20043;-57
2021/06/08 07:11:37;;;;;;;5.40;1.50;;;;;;;;;;5062678;28;20036;-57
2021/06/08 07:14:06;;;;;;;6.55;1.70;;;;;;;;;;5066174;28;20039;-54
2021/06/08 07:16:32;;;;;;;6.32;1.65;;;;;;;;;;5082091;28;20040;-56
2021/06/08 07:19:01;;;;;;;3.20;1.70;;;;;;;;;;5098338;28;20033;-57
2021/06/08 07:21:27;;;;;;;;;;;;;;;;;;5084024;28;20040;-56
2021/06/08 07:23:55;;;;;;;4.53;1.33;;;;;;;;;;5093730;28;19981;-56
2021/06/08 07:26:22;;;;;;;2.83;1.40;;;;;;;;;;5065673;28;20044;-57
2021/06/08 07:28:49;;;;;;;4.25;1.50;;;;;;;;;;5080238;28;20048;-55
2021/06/08 07:31:19;;;;;;;12.95;4.80;;;;;;;;;;5065704;28;20037;-61
2021/06/08 07:33:48;;;;;;;12.48;6.18;;;;;;;;;;5079552;28;20056;-58
2021/06/08 07:36:18;;;;;;;5.63;2.40;;;;;;;;;;5084237;28;20052;-58
2021/06/08 07:38:46;;;;;;;4.95;1.75;;;;;;;;;;5096101;28;20037;-57
2021/06/08 07:41:12;;;;;;;;;;;;;;;;;;5066624;28;20063;-57
2021/06/08 07:43:44;;;;;;;4.97;1.90;;;;;;;;;;5060890;28;19924;-55
2021/06/08 07:46:11;;;;;;;4.25;1.88;;;;;;;;;;5065311;28;20021;-56
2021/06/08 07:48:40;;;;;;;4.20;2.00;;;;;;;;;;5061860;28;20037;-58
2021/06/08 07:51:08;;;;;;;4.78;1.80;;;;;;;;;;5064876;28;20033;-57
2021/06/08 07:53:34;;;;;;;5.70;1.70;;;;;;;;;;5080120;28;20040;-58
2021/06/08 07:56:01;;;;;;;4.95;1.98;;;;;;;;;;5082610;28;20051;-56
2021/06/08 07:58:27;;;;;;;5.85;2.10;;;;;;;;;;5062335;28;20040;-59
2021/06/08 08:00:57;;;;;;;6.28;2.13;;;;;;;;;;5065002;28;20048;-58
2021/06/08 08:03:29;;;;;;;5.15;2.10;;;;;;;;;;5095274;28;20051;-57
2021/06/08 08:05:57;;;;;;;4.57;1.73;;;;;;;;;;5063678;28;20043;-59
2021/06/08 08:08:24;;;;;;;4.88;1.90;;;;;;;;;;5046088;28;20041;-59
2021/06/08 08:10:51;;;;;;;4.38;2.00;;;;;;;;;;5061970;28;20101;-58
2021/06/08 08:13:21;;;;;;;5.38;1.95;;;;;;;;;;5065175;28;20044;-56
2021/06/08 08:15:48;;;;;;;4.95;2.00;;;;;;;;;;5061685;28;20049;-58
2021/06/08 08:18:15;;;;;;;6.40;1.90;;;;;;;;;;5100304;28;20151;-59
2021/06/08 08:20:44;;;;;;;3.63;1.87;;;;;;;;;;5062339;28;20064;-57
2021/06/08 08:23:10;;;;;;;7.30;2.00;;;;;;;;;;5085393;28;20040;-59
2021/06/08 08:25:37;;;;;;;5.07;1.80;;;;;;;;;;5061709;28;20036;-57
2021/06/08 08:28:03;;;;;;;3.95;1.50;;;;;;;;;;5083502;28;20044;-53
2021/06/08 08:30:29;;;;;;;4.00;1.98;;;;;;;;;;5061094;28;20032;-58
2021/06/08 08:32:55;;;;;;;4.63;1.85;;;;;;;;;;5097532;28;20084;-58
2021/06/08 08:35:23;;;;;;;4.93;1.85;;;;;;;;;;5078858;28;20040;-57
2021/06/08 08:37:48;;;;;;;3.72;1.77;;;;;;;;;;5061294;28;20060;-58
2021/06/08 08:40:15;;;;;;;3.78;1.95;;;;;;;;;;5058397;28;20073;-58
2021/06/08 08:42:41;;;;;;;6.05;1.70;;;;;;;;;;5064257;28;20052;-58
2021/06/08 08:45:07;;;;;;;2.42;1.60;;;;;;;;;;5057296;28;20121;-57
2021/06/08 08:47:34;;;;;;;2.60;1.45;;;;;;;;;;5062715;28;20041;-58
2021/06/08 08:50:01;;;;;;;3.58;1.90;;;;;;;;;;5060903;28;20060;-56
2021/06/08 08:52:28;;;;;;;3.78;1.77;;;;;;;;;;5056216;28;20088;-56
2021/06/08 08:54:54;;;;;;;3.78;1.77;;;;;;;;;;5063720;28;20044;-57
2021/06/08 08:57:21;;;;;;;6.00;1.75;;;;;;;;;;5056976;28;20044;-58
2021/06/08 08:59:47;;;;;;;6.28;1.80;;;;;;;;;;5061755;28;20041;-57
2021/06/08 09:02:13;;;;;;;4.53;1.88;;;;;;;;;;5059035;28;20041;-59
2021/06/08 09:04:39;;;;;;;3.38;1.92;;;;;;;;;;5059725;28;20057;-57
2021/06/08 09:07:05;;;;;;;10.07;5.22;;;;;;;;;;5057783;28;20058;-59
2021/06/08 09:09:33;;;;;;;5.45;2.25;;;;;;;;;;5065314;28;20106;-57
2021/06/08 09:12:04;;;;;;;3.33;1.60;;;;;;;;;;5059563;28;20047;-57
2021/06/08 09:14:30;;;;;;;3.85;1.80;;;;;;;;;;5061137;28;20053;-54
2021/06/08 09:16:56;;;;;;;5.45;1.83;;;;;;;;;;5060631;28;20044;-58
2021/06/08 09:19:25;;;;;;;5.10;1.60;;;;;;;;;;5081640;28;20032;-57
2021/06/08 09:21:54;;;;;;;3.15;1.25;;;;;;;;;;5075789;28;20049;-59
2021/06/08 09:24:20;;;;;;;1.92;1.35;;;;;;;;;;5081313;28;20112;-58
2021/06/08 09:26:52;;;;;;;3.95;1.80;;;;;;;;;;5061598;28;20037;-58
2021/06/08 09:29:28;;;;;;;3.28;1.60;;;;;;;;;;5061918;28;20048;-58
2021/06/08 09:32:09;;;;;;;2.88;1.42;;;;;;;;;;5061257;28;20098;-59
2021/06/08 09:34:35;;;;;;;2.10;1.38;;;;;;;;;;5063482;28;20183;-59
2021/06/08 09:37:04;;;;;;;3.17;1.52;;;;;;;;;;5076110;28;20048;-59
2021/06/08 09:39:30;;;;;;;3.30;1.58;;;;;;;;;;5063790;28;20047;-59
2021/06/08 09:41:57;;;;;;;4.15;1.77;;;;;;;;;;5053517;28;20032;-58
2021/06/08 09:44:23;;;;;;;3.08;1.52;;;;;;;;;;5062877;28;20054;-58
2021/06/08 09:46:50;;;;;;;4.55;1.50;;;;;;;;;;5078512;28;20048;-57
2021/06/08 09:49:17;;;;;;;4.57;1.38;;;;;;;;;;5098293;28;20043;-57
2021/06/08 09:51:52;;;;;;;4.60;1.77;;;;;;;;;;5066165;28;20047;-59
2021/06/08 09:54:25;;;;;;;7.05;1.63;;;;;;;;;;5064055;28;20114;-57
2021/06/08 09:57:10;;;;;;;3.10;1.60;;;;;;;;;;5085683;28;20117;-59
2021/06/08 09:59:41;;;;;;;4.80;2.00;;;;;;;;;;5064787;28;20068;-53
2021/06/08 10:02:20;;;;;;;2.88;1.63;;;;;;;;;;5086530;28;20055;-58
2021/06/08 10:04:46;;;;;;;3.60;1.70;;;;;;;;;;5082143;28;20024;-56
2021/06/08 10:07:24;;;;;;;2.13;1.42;;;;;;;;;;5085169;28;20064;-59
2021/06/08 10:10:01;;;;;;;3.53;1.60;;;;;;;;;;5096829;28;20032;-59
2021/06/08 10:12:27;;;;;;;2.60;1.60;;;;;;;;;;5083746;28;20121;-59
2021/06/08 10:15:03;;;;;;;2.53;1.50;;;;;;;;;;5094150;28;20063;-59
2021/06/08 10:17:30;;;;;;;3.63;1.70;;;;;;;;;;5099110;28;20045;-59
2021/06/08 10:19:56;;;;;;;4.97;1.70;;;;;;;;;;5063464;28;20028;-59
2021/06/08 10:22:31;;;;;;;4.88;1.80;;;;;;;;;;5083365;28;20105;-55
2021/06/08 10:24:57;;;;;;;5.95;1.60;;;;;;;;;;5081767;28;20048;-60
2021/06/08 10:27:23;;;;;;;3.20;1.67;;;;;;;;;;5099758;28;20032;-57
2021/06/08 10:29:50;;;;;;;6.72;2.60;;;;;;;;;;5096370;28;20041;-58
2021/06/08 10:32:18;;;;;;;11.80;6.13;;;;;;;;;;5100122;28;20029;-59
2021/06/08 10:34:44;;;;;;;4.90;2.60;;;;;;;;;;5062380;28;20044;-57
2021/06/08 10:37:10;;;;;;;3.55;1.75;;;;;;;;;;5066963;28;20047;-60
2021/06/08 10:39:36;;;;;;;3.38;1.63;;;;;;;;;;5061219;28;20052;-59
2021/06/08 10:42:04;;;;;;;2.33;1.40;;;;;;;;;;5085024;28;20048;-59
2021/06/08 10:44:30;;;;;;;3.78;1.70;;;;;;;;;;5084054;28;20040;-60
2021/06/08 10:46:57;;;;;;;3.83;1.90;;;;;;;;;;5096339;27;20117;-60
2021/06/08 10:49:39;;;;;;;3.40;1.90;;;;;;;;;;5066095;28;20062;-59
2021/06/08 10:52:06;;;;;;;4.63;2.00;;;;;;;;;;5077786;28;20040;-58
2021/06/08 10:54:37;;;;;;;3.45;1.85;;;;;;;;;;5100606;28;20052;-59
2021/06/08 10:57:09;;;;;;;3.33;1.88;;;;;;;;;;5096187;28;20055;-60
2021/06/08 10:59:35;;;;;;;3.40;1.92;;;;;;;;;;5100565;28;20093;-59
2021/06/08 11:02:01;;;;;;;3.45;2.03;;;;;;;;;;5080417;28;20032;-59
2021/06/08 11:04:47;;;;;;;8.45;2.58;;;;;;;;;;5084355;28;20055;-58
2021/06/08 11:07:17;;;;;;;5.85;2.40;;;;;;;;;;5067670;28;20136;-59
2021/06/08 11:09:43;;;;;;;3.70;1.80;;;;;;;;;;5083344;28;20036;-60
2021/06/08 11:12:26;;;;;;;7.25;1.77;;;;;;;;;;5090439;27;20056;-60
2021/06/08 11:14:58;;;;;;;5.68;2.15;;;;;;;;;;5077811;28;20033;-59
2021/06/08 11:17:29;;;;;;;3.20;1.73;;;;;;;;;;5055354;28;20085;-57
2021/06/08 11:19:55;;;;;;;4.28;1.50;;;;;;;;;;5066805;28;20041;-59
2021/06/08 11:22:42;;;;;;;3.17;1.60;;;;;;;;;;5063000;28;20063;-58
2021/06/08 11:25:28;;;;;;;2.58;1.60;;;;;;;;;;5063177;28;20055;-59
2021/06/08 11:27:55;;;;;;;3.28;1.75;;;;;;;;;;5061305;28;20055;-59
2021/06/08 11:30:23;;;;;;;8.67;1.77;;;;;;;;;;5098460;28;20044;-60
2021/06/08 11:32:49;;;;;;;4.07;1.98;;;;;;;;;;5095062;28;20276;-59
2021/06/08 11:35:19;;;;;;;3.72;1.80;;;;;;;;;;5084507;28;20036;-59
2021/06/08 11:37:51;;;;;;;5.72;1.80;;;;;;;;;;5063113;28;20044;-60
2021/06/08 11:40:36;;;;;;;3.78;1.60;;;;;;;;;;5066688;28;20039;-61
2021/06/08 11:43:03;;;;;;;3.85;2.00;;;;;;;;;;5096490;28;20036;-60
2021/06/08 11:45:29;;;;;;;4.57;2.20;;;;;;;;;;5066496;28;20097;-60
2021/06/08 11:47:55;;;;;;;3.10;1.77;;;;;;;;;;5063246;28;20055;-58
2021/06/08 11:50:36;;;;;;;4.00;1.60;;;;;;;;;;5066278;28;20104;-59
2021/06/08 11:53:07;;;;;;;2.47;1.50;;;;;;;;;;5080060;28;20094;-58
2021/06/08 11:55:33;;;;;;;3.72;1.65;;;;;;;;;;5066105;28;20055;-60
2021/06/08 11:57:59;;;;;;;3.47;1.52;;;;;;;;;;5061540;28;20040;-59
2021/06/08 12:00:40;;;;;;;2.63;1.40;;;;;;;;;;5064031;28;20044;-60
2021/06/08 12:03:21;;;;;;;2.97;1.50;;;;;;;;;;5061816;28;20081;-59
2021/06/08 12:05:47;;;;;;;5.25;1.80;;;;;;;;;;5075905;28;20047;-61
2021/06/08 12:08:21;;;;;;;4.32;2.00;;;;;;;;;;5096732;28;20096;-60
2021/06/08 12:10:48;;;;;;;3.92;1.80;;;;;;;;;;5043356;28;20037;-60
2021/06/08 12:13:16;;;;;;;3.08;1.80;;;;;;;;;;5043531;28;20049;-59
2021/06/08 12:15:42;;;;;;;;;;;;;;;;;;5064586;28;20073;-60
2021/06/08 12:18:08;;;;;;;6.22;2.00;;;;;;;;;;5061577;28;19924;-59
2021/06/08 12:20:36;;;;;;;4.95;2.00;;;;;;;;;;5059820;28;20060;-60
2021/06/08 12:23:02;;;;;;;5.00;1.90;;;;;;;;;;5083485;28;20040;-60
2021/06/08 12:25:30;;;;;;;4.10;1.85;;;;;;;;;;5094630;28;20024;-59
2021/06/08 12:27:56;;;;;;;6.50;1.60;;;;;;;;;;5097086;28;20166;-62
2021/06/08 12:30:23;;;;;;;3.88;1.50;;;;;;;;;;5059938;28;20040;-59
2021/06/08 12:32:53;;;;;;;3.40;1.63;;;;;;;;;;5097063;28;20032;-60
2021/06/08 12:35:23;;;;;;;2.50;1.40;;;;;;;;;;5094706;28;20036;-59
2021/06/08 12:37:49;;;;;;;7.70;1.80;;;;;;;;;;5060743;28;20055;-60
2021/06/08 12:40:19;;;;;;;5.85;1.63;;;;;;;;;;5057393;28;20138;-59
2021/06/08 12:42:47;;;;;;;3.17;1.77;;;;;;;;;;5065159;28;20057;-60
2021/06/08 12:45:13;;;;;;;;;;;;;;;;;;5062739;28;20037;-60
2021/06/08 12:47:39;;;;;;;8.45;4.93;;;;;;;;;;5064282;28;19917;-59
2021/06/08 12:50:13;;;;;;;3.45;2.08;;;;;;;;;;5078219;28;20037;-59
2021/06/08 12:52:39;;;;;;;7.05;2.10;;;;;;;;;;5064154;28;20108;-59
2021/06/08 12:55:09;;;;;;;3.38;1.73;;;;;;;;;;5061196;28;20060;-60
2021/06/08 12:57:35;;;;;;;3.03;1.50;;;;;;;;;;5063388;28;20049;-59
2021/06/08 13:00:05;;;;;;;5.13;1.70;;;;;;;;;;5060648;28;20118;-58
2021/06/08 13:02:34;;;;;;;4.50;2.15;;;;;;;;;;5065174;28;20051;-60
2021/06/08 13:05:03;;;;;;;87.15;7.45;;;;;;;;;;5065962;28;20052;-57
2021/06/08 13:07:31;;;;;;;16.33;2.47;;;;;;;;;;5062194;28;20045;-57
2021/06/08 13:09:58;;;;;;;5.82;2.10;;;;;;;;;;5081153;28;20048;-58
2021/06/08 13:12:24;;;;;;;2.92;1.83;;;;;;;;;;5063111;28;20056;-59
2021/06/08 13:15:00;;;;;;;4.03;1.67;;;;;;;;;;5063829;28;20044;-58
2021/06/08 13:17:29;;;;;;;2.72;1.55;;;;;;;;;;5060780;28;20045;-60
2021/06/08 13:19:55;;;;;;;3.13;1.63;;;;;;;;;;5081650;28;20040;-60
2021/06/08 13:22:22;;;;;;;3.75;1.73;;;;;;;;;;5064075;28;20037;-59
2021/06/08 13:24:49;;;;;;;10.55;2.55;;;;;;;;;;5083301;28;20087;-59
2021/06/08 13:27:19;;;;;;;6.47;2.53;;;;;;;;;;5059732;28;20044;-59
2021/06/08 13:29:45;;;;;;;6.57;2.28;;;;;;;;;;5064172;28;20037;-60
2021/06/08 13:32:21;;;;;;;3.40;2.00;;;;;;;;;;5060296;28;20155;-59
2021/06/08 13:35:02;;;;;;;4.65;1.90;;;;;;;;;;5065047;28;20056;-58
2021/06/08 13:37:29;;;;;;;4.35;2.13;;;;;;;;;;5059032;28;20155;-59
2021/06/08 13:39:55;;;;;;;6.95;1.90;;;;;;;;;;5080124;28;20033;-60
2021/06/08 13:42:22;;;;;;;2.80;1.70;;;;;;;;;;5054339;28;20104;-60
2021/06/08 13:45:01;;;;;;;5.07;1.83;;;;;;;;;;5064685;28;20049;-60
2021/06/08 13:47:28;;;;;;;3.40;1.70;;;;;;;;;;5060390;28;20029;-60
2021/06/08 13:49:54;;;;;;;2.72;1.80;;;;;;;;;;5064935;28;20118;-59
2021/06/08 13:52:20;;;;;;;3.13;1.70;;;;;;;;;;5059610;28;20036;-60
2021/06/08 13:54:48;;;;;;;3.80;2.00;;;;;;;;;;5062012;28;20033;-60
2021/06/08 13:57:19;;;;;;;3.15;1.75;;;;;;;;;;5073780;28;20043;-60
2021/06/08 14:02:45;;;;;;;4.50;1.90;;;;;;;;;;5043247;28;20040;-59
2021/06/08 14:05:25;;;;;;;3.70;1.85;;;;;;;;;;5075228;28;20049;-59
2021/06/08 14:07:51;;;;;;;3.47;1.70;;;;;;;;;;5060534;28;20067;-60
2021/06/08 14:10:19;;;;;;;6.03;2.10;;;;;;;;;;5080108;28;20044;-59
2021/06/08 14:12:58;;;;;;;2.90;1.90;;;;;;;;;;5060669;28;20048;-60
2021/06/08 14:15:24;;;;;;;7.32;1.88;;;;;;;;;;5041609;28;20029;-60
2021/06/08 14:17:50;;;;;;;3.15;1.88;;;;;;;;;;5045176;28;20049;-60
2021/06/08 14:20:17;;;;;;;11.65;2.20;;;;;;;;;;5060227;28;20091;-60
2021/06/08 14:22:43;;;;;;;5.38;1.98;;;;;;;;;;5065421;28;20049;-59
2021/06/08 14:25:10;;;;;;;4.53;1.90;;;;;;;;;;5062561;28;20049;-58
2021/06/08 14:27:38;;;;;;;3.60;2.03;;;;;;;;;;5080208;28;20103;-60
2021/06/08 14:30:04;;;;;;;5.63;1.90;;;;;;;;;;5076371;28;20057;-59
2021/06/08 14:32:30;;;;;;;3.55;1.98;;;;;;;;;;5062793;28;20126;-60
2021/06/08 14:34:58;;;;;;;3.97;1.88;;;;;;;;;;5076978;28;20052;-59
2021/06/08 14:37:24;;;;;;;3.22;1.70;;;;;;;;;;5079897;28;20044;-60
2021/06/08 14:39:52;;;;;;;3.92;2.00;;;;;;;;;;5075174;28;20044;-60
2021/06/08 14:42:19;;;;;;;3.88;2.00;;;;;;;;;;5046835;28;20029;-59
2021/06/08 14:44:46;;;;;;;6.32;2.08;;;;;;;;;;5076367;28;20049;-60
2021/06/08 14:47:13;;;;;;;5.07;1.80;;;;;;;;;;5079470;28;20122;-60
2021/06/08 14:49:42;;;;;;;3.40;1.73;;;;;;;;;;5076120;28;20056;-60